sensor_id;sensor_type;location;lat;lon;timestamp;P1;durP1;ratioP1;P2;durP2;ratioP2
72299;SDS011;60234;52.414;13.334;2022-07-01T00:00:46;10.53;;;5.57;;
72299;SDS011;60234;52.414;13.334;2022-07-01T00:03:11;10.40;;;5.27;;
72299;SDS011;60234;52.414;13.334;2022-07-01T00:05:36;9.30;;;5.13;;
72299;SDS011;60234;52.414;13.334;2022-07-01T00:08:02;9.67;;;4.67;;
72299;SDS011;60234;52.414;13.334;2022-07-01T00:10:30;10.60;;;5.43;;
72299;SDS011;60234;52.414;13.334;2022-07-01T00:12:55;10.05;;;5.55;;
72299;SDS011;60234;52.414;13.334;2022-07-01T00:15:21;9.33;;;5.27;;
72299;SDS011;60234;52.414;13.334;2022-07-01T00:17:47;10.65;;;5.75;;
72299;SDS011;60234;52.414;13.334;2022-07-01T00:20:13;9.77;;;4.77;;
72299;SDS011;60234;52.414;13.334;2022-07-01T00:22:39;10.23;;;5.40;;
72299;SDS011;60234;52.414;13.334;2022-07-01T00:25:05;10.32;;;5.25;;
72299;SDS011;60234;52.414;13.334;2022-07-01T00:27:31;11.88;;;6.22;;
72299;SDS011;60234;52.414;13.334;2022-07-01T00:29:57;10.27;;;5.20;;
72299;SDS011;60234;52.414;13.334;2022-07-01T00:32:22;12.57;;;6.13;;
72299;SDS011;60234;52.414;13.334;2022-07-01T00:34:48;11.93;;;5.80;;
72299;SDS011;60234;52.414;13.334;2022-07-01T00:37:13;9.63;;;5.60;;
72299;SDS011;60234;52.414;13.334;2022-07-01T00:39:38;11.82;;;6.18;;
72299;SDS011;60234;52.414;13.334;2022-07-01T00:42:04;10.87;;;5.90;;
72299;SDS011;60234;52.414;13.334;2022-07-01T00:44:30;9.57;;;5.57;;
72299;SDS011;60234;52.414;13.334;2022-07-01T00:46:57;10.53;;;5.37;;
72299;SDS011;60234;52.414;13.334;2022-07-01T00:49:25;12.18;;;6.57;;
72299;SDS011;60234;52.414;13.334;2022-07-01T00:51:51;9.60;;;5.75;;
72299;SDS011;60234;52.414;13.334;2022-07-01T00:54:17;10.30;;;5.70;;
72299;SDS011;60234;52.414;13.334;2022-07-01T00:56:44;10.33;;;5.83;;
72299;SDS011;60234;52.414;13.334;2022-07-01T00:59:13;10.20;;;5.75;;
72299;SDS011;60234;52.414;13.334;2022-07-01T01:01:39;11.13;;;6.07;;
72299;SDS011;60234;52.414;13.334;2022-07-01T01:04:05;11.00;;;5.83;;
72299;SDS011;60234;52.414;13.334;2022-07-01T01:06:30;12.98;;;6.70;;
72299;SDS011;60234;52.414;13.334;2022-07-01T01:08:56;12.93;;;6.80;;
72299;SDS011;60234;52.414;13.334;2022-07-01T01:11:21;12.00;;;6.10;;
72299;SDS011;60234;52.414;13.334;2022-07-01T01:13:47;12.88;;;6.55;;
72299;SDS011;60234;52.414;13.334;2022-07-01T01:16:54;11.47;;;6.43;;
72299;SDS011;60234;52.414;13.334;2022-07-01T01:19:10;10.68;;;6.15;;
72299;SDS011;60234;52.414;13.334;2022-07-01T01:21:37;12.07;;;5.95;;
72299;SDS011;60234;52.414;13.334;2022-07-01T01:24:03;12.20;;;6.47;;
72299;SDS011;60234;52.414;13.334;2022-07-01T01:26:30;11.57;;;6.50;;
72299;SDS011;60234;52.414;13.334;2022-07-01T01:28:57;11.20;;;6.17;;
72299;SDS011;60234;52.414;13.334;2022-07-01T01:31:29;11.95;;;6.53;;
72299;SDS011;60234;52.414;13.334;2022-07-01T01:33:58;10.50;;;5.90;;
72299;SDS011;60234;52.414;13.334;2022-07-01T01:36:23;11.45;;;6.20;;
72299;SDS011;60234;52.414;13.334;2022-07-01T01:38:49;12.13;;;6.63;;
72299;SDS011;60234;52.414;13.334;2022-07-01T01:41:14;12.13;;;6.43;;
72299;SDS011;60234;52.414;13.334;2022-07-01T01:43:40;11.80;;;5.83;;
72299;SDS011;60234;52.414;13.334;2022-07-01T01:46:08;13.27;;;6.43;;
72299;SDS011;60234;52.414;13.334;2022-07-01T01:48:33;11.93;;;6.38;;
72299;SDS011;60234;52.414;13.334;2022-07-01T01:50:59;14.07;;;7.33;;
72299;SDS011;60234;52.414;13.334;2022-07-01T01:53:24;10.95;;;6.07;;
72299;SDS011;60234;52.414;13.334;2022-07-01T01:55:49;12.57;;;6.80;;
72299;SDS011;60234;52.414;13.334;2022-07-01T01:58:15;15.10;;;7.87;;
72299;SDS011;60234;52.414;13.334;2022-07-01T02:00:40;12.23;;;6.70;;
72299;SDS011;60234;52.414;13.334;2022-07-01T02:03:06;13.37;;;7.20;;
72299;SDS011;60234;52.414;13.334;2022-07-01T02:05:31;11.80;;;6.40;;
72299;SDS011;60234;52.414;13.334;2022-07-01T02:07:57;12.23;;;6.70;;
72299;SDS011;60234;52.414;13.334;2022-07-01T02:10:22;11.93;;;6.37;;
72299;SDS011;60234;52.414;13.334;2022-07-01T02:12:48;13.17;;;7.40;;
72299;SDS011;60234;52.414;13.334;2022-07-01T02:15:13;12.30;;;6.67;;
72299;SDS011;60234;52.414;13.334;2022-07-01T02:17:39;14.97;;;7.77;;
72299;SDS011;60234;52.414;13.334;2022-07-01T02:20:04;13.13;;;6.83;;
72299;SDS011;60234;52.414;13.334;2022-07-01T02:22:30;12.77;;;6.65;;
72299;SDS011;60234;52.414;13.334;2022-07-01T02:24:55;12.93;;;6.60;;
72299;SDS011;60234;52.414;13.334;2022-07-01T02:27:21;15.23;;;7.27;;
72299;SDS011;60234;52.414;13.334;2022-07-01T02:29:46;12.87;;;7.53;;
72299;SDS011;60234;52.414;13.334;2022-07-01T02:32:11;12.70;;;7.60;;
72299;SDS011;60234;52.414;13.334;2022-07-01T02:34:37;14.83;;;7.60;;
72299;SDS011;60234;52.414;13.334;2022-07-01T02:37:02;13.15;;;7.07;;
72299;SDS011;60234;52.414;13.334;2022-07-01T02:39:28;12.33;;;6.77;;
72299;SDS011;60234;52.414;13.334;2022-07-01T02:41:53;13.60;;;7.20;;
72299;SDS011;60234;52.414;13.334;2022-07-01T02:44:37;13.45;;;7.75;;
72299;SDS011;60234;52.414;13.334;2022-07-01T02:47:02;13.20;;;7.57;;
72299;SDS011;60234;52.414;13.334;2022-07-01T02:49:28;14.05;;;7.50;;
72299;SDS011;60234;52.414;13.334;2022-07-01T02:51:53;14.37;;;8.00;;
72299;SDS011;60234;52.414;13.334;2022-07-01T02:54:19;16.33;;;7.93;;
72299;SDS011;60234;52.414;13.334;2022-07-01T02:56:44;13.93;;;7.37;;
72299;SDS011;60234;52.414;13.334;2022-07-01T02:59:10;16.10;;;8.18;;
72299;SDS011;60234;52.414;13.334;2022-07-01T03:01:35;15.43;;;7.87;;
72299;SDS011;60234;52.414;13.334;2022-07-01T03:04:00;13.93;;;7.33;;
72299;SDS011;60234;52.414;13.334;2022-07-01T03:06:26;18.77;;;8.30;;
72299;SDS011;60234;52.414;13.334;2022-07-01T03:08:52;13.82;;;7.47;;
72299;SDS011;60234;52.414;13.334;2022-07-01T03:11:17;16.53;;;8.13;;
72299;SDS011;60234;52.414;13.334;2022-07-01T03:13:43;14.18;;;7.65;;
72299;SDS011;60234;52.414;13.334;2022-07-01T03:16:09;14.03;;;7.37;;
72299;SDS011;60234;52.414;13.334;2022-07-01T03:18:35;13.73;;;7.63;;
72299;SDS011;60234;52.414;13.334;2022-07-01T03:21:00;13.83;;;7.13;;
72299;SDS011;60234;52.414;13.334;2022-07-01T03:23:25;13.60;;;7.93;;
72299;SDS011;60234;52.414;13.334;2022-07-01T03:25:51;13.90;;;6.68;;
72299;SDS011;60234;52.414;13.334;2022-07-01T03:28:17;14.97;;;7.93;;
72299;SDS011;60234;52.414;13.334;2022-07-01T03:30:42;14.57;;;7.23;;
72299;SDS011;60234;52.414;13.334;2022-07-01T03:33:11;14.53;;;7.27;;
72299;SDS011;60234;52.414;13.334;2022-07-01T03:35:36;14.65;;;7.95;;
72299;SDS011;60234;52.414;13.334;2022-07-01T03:38:04;14.85;;;7.93;;
72299;SDS011;60234;52.414;13.334;2022-07-01T03:40:32;16.75;;;8.15;;
72299;SDS011;60234;52.414;13.334;2022-07-01T03:43:04;13.93;;;7.57;;
72299;SDS011;60234;52.414;13.334;2022-07-01T03:45:30;14.33;;;7.57;;
72299;SDS011;60234;52.414;13.334;2022-07-01T03:47:59;14.43;;;7.93;;
72299;SDS011;60234;52.414;13.334;2022-07-01T03:50:25;18.55;;;9.05;;
72299;SDS011;60234;52.414;13.334;2022-07-01T03:52:51;15.77;;;8.05;;
72299;SDS011;60234;52.414;13.334;2022-07-01T03:55:35;17.10;;;8.83;;
72299;SDS011;60234;52.414;13.334;2022-07-01T03:58:04;17.02;;;8.23;;
72299;SDS011;60234;52.414;13.334;2022-07-01T04:00:36;15.27;;;8.30;;
72299;SDS011;60234;52.414;13.334;2022-07-01T04:03:05;18.05;;;8.05;;
72299;SDS011;60234;52.414;13.334;2022-07-01T04:05:39;15.27;;;8.18;;
72299;SDS011;60234;52.414;13.334;2022-07-01T04:08:08;18.33;;;9.80;;
72299;SDS011;60234;52.414;13.334;2022-07-01T04:10:35;16.85;;;9.10;;
72299;SDS011;60234;52.414;13.334;2022-07-01T04:13:02;17.10;;;8.23;;
72299;SDS011;60234;52.414;13.334;2022-07-01T04:15:28;17.80;;;8.80;;
72299;SDS011;60234;52.414;13.334;2022-07-01T04:17:53;15.20;;;8.40;;
72299;SDS011;60234;52.414;13.334;2022-07-01T04:20:19;15.57;;;8.48;;
72299;SDS011;60234;52.414;13.334;2022-07-01T04:22:45;16.97;;;8.40;;
72299;SDS011;60234;52.414;13.334;2022-07-01T04:25:10;15.88;;;9.13;;
72299;SDS011;60234;52.414;13.334;2022-07-01T04:27:35;16.37;;;8.20;;
72299;SDS011;60234;52.414;13.334;2022-07-01T04:30:01;16.00;;;8.40;;
72299;SDS011;60234;52.414;13.334;2022-07-01T04:32:29;17.95;;;9.23;;
72299;SDS011;60234;52.414;13.334;2022-07-01T04:34:55;15.73;;;9.10;;
72299;SDS011;60234;52.414;13.334;2022-07-01T04:37:21;17.65;;;8.73;;
72299;SDS011;60234;52.414;13.334;2022-07-01T04:39:46;16.27;;;8.77;;
72299;SDS011;60234;52.414;13.334;2022-07-01T04:42:12;14.80;;;8.23;;
72299;SDS011;60234;52.414;13.334;2022-07-01T04:44:39;15.40;;;8.93;;
72299;SDS011;60234;52.414;13.334;2022-07-01T04:47:04;16.33;;;8.90;;
72299;SDS011;60234;52.414;13.334;2022-07-01T04:49:30;16.27;;;9.10;;
72299;SDS011;60234;52.414;13.334;2022-07-01T04:51:56;18.00;;;9.30;;
72299;SDS011;60234;52.414;13.334;2022-07-01T04:54:22;16.45;;;9.25;;
72299;SDS011;60234;52.414;13.334;2022-07-01T04:56:48;16.05;;;8.88;;
72299;SDS011;60234;52.414;13.334;2022-07-01T04:59:15;18.15;;;9.40;;
72299;SDS011;60234;52.414;13.334;2022-07-01T05:01:41;16.13;;;8.80;;
72299;SDS011;60234;52.414;13.334;2022-07-01T05:04:07;16.60;;;8.60;;
72299;SDS011;60234;52.414;13.334;2022-07-01T05:06:32;15.13;;;8.77;;
72299;SDS011;60234;52.414;13.334;2022-07-01T05:08:59;15.53;;;8.63;;
72299;SDS011;60234;52.414;13.334;2022-07-01T05:11:24;16.63;;;9.25;;
72299;SDS011;60234;52.414;13.334;2022-07-01T05:13:52;15.23;;;9.02;;
72299;SDS011;60234;52.414;13.334;2022-07-01T05:16:18;15.57;;;8.33;;
72299;SDS011;60234;52.414;13.334;2022-07-01T05:18:44;17.17;;;9.98;;
72299;SDS011;60234;52.414;13.334;2022-07-01T05:21:29;14.60;;;8.77;;
72299;SDS011;60234;52.414;13.334;2022-07-01T05:24:16;16.67;;;8.98;;
72299;SDS011;60234;52.414;13.334;2022-07-01T05:26:41;18.25;;;8.90;;
72299;SDS011;60234;52.414;13.334;2022-07-01T05:29:07;15.20;;;8.10;;
72299;SDS011;60234;52.414;13.334;2022-07-01T05:31:33;15.77;;;8.57;;
72299;SDS011;60234;52.414;13.334;2022-07-01T05:33:58;14.63;;;8.50;;
72299;SDS011;60234;52.414;13.334;2022-07-01T05:36:24;15.23;;;8.53;;
72299;SDS011;60234;52.414;13.334;2022-07-01T05:38:49;16.47;;;8.93;;
72299;SDS011;60234;52.414;13.334;2022-07-01T05:41:15;16.70;;;8.27;;
72299;SDS011;60234;52.414;13.334;2022-07-01T05:43:41;15.50;;;8.75;;
72299;SDS011;60234;52.414;13.334;2022-07-01T05:46:06;16.20;;;8.77;;
72299;SDS011;60234;52.414;13.334;2022-07-01T05:48:32;15.87;;;8.80;;
72299;SDS011;60234;52.414;13.334;2022-07-01T05:50:57;16.02;;;9.20;;
72299;SDS011;60234;52.414;13.334;2022-07-01T05:53:22;16.50;;;9.57;;
72299;SDS011;60234;52.414;13.334;2022-07-01T05:55:48;15.03;;;8.80;;
72299;SDS011;60234;52.414;13.334;2022-07-01T05:58:13;17.30;;;8.90;;
72299;SDS011;60234;52.414;13.334;2022-07-01T06:00:39;15.40;;;8.95;;
72299;SDS011;60234;52.414;13.334;2022-07-01T06:03:08;16.73;;;9.37;;
72299;SDS011;60234;52.414;13.334;2022-07-01T06:05:35;16.25;;;8.93;;
72299;SDS011;60234;52.414;13.334;2022-07-01T06:08:01;17.30;;;9.27;;
72299;SDS011;60234;52.414;13.334;2022-07-01T06:10:26;16.00;;;9.00;;
72299;SDS011;60234;52.414;13.334;2022-07-01T06:12:51;15.97;;;9.30;;
72299;SDS011;60234;52.414;13.334;2022-07-01T06:15:17;16.35;;;8.70;;
72299;SDS011;60234;52.414;13.334;2022-07-01T06:17:42;16.60;;;9.60;;
72299;SDS011;60234;52.414;13.334;2022-07-01T06:20:08;16.97;;;9.07;;
72299;SDS011;60234;52.414;13.334;2022-07-01T06:22:33;16.33;;;8.73;;
72299;SDS011;60234;52.414;13.334;2022-07-01T06:25:00;16.23;;;9.20;;
72299;SDS011;60234;52.414;13.334;2022-07-01T06:27:26;18.38;;;9.32;;
72299;SDS011;60234;52.414;13.334;2022-07-01T06:29:51;16.02;;;8.40;;
72299;SDS011;60234;52.414;13.334;2022-07-01T06:32:17;15.40;;;8.70;;
72299;SDS011;60234;52.414;13.334;2022-07-01T06:34:43;16.97;;;8.90;;
72299;SDS011;60234;52.414;13.334;2022-07-01T06:37:08;15.75;;;9.50;;
72299;SDS011;60234;52.414;13.334;2022-07-01T06:39:33;17.20;;;9.40;;
72299;SDS011;60234;52.414;13.334;2022-07-01T06:41:59;16.30;;;9.00;;
72299;SDS011;60234;52.414;13.334;2022-07-01T06:44:24;17.60;;;8.83;;
72299;SDS011;60234;52.414;13.334;2022-07-01T06:46:50;14.43;;;8.30;;
72299;SDS011;60234;52.414;13.334;2022-07-01T06:49:15;15.20;;;8.70;;
72299;SDS011;60234;52.414;13.334;2022-07-01T06:51:40;14.67;;;8.33;;
72299;SDS011;60234;52.414;13.334;2022-07-01T06:54:06;14.43;;;7.93;;
72299;SDS011;60234;52.414;13.334;2022-07-01T06:56:32;14.98;;;8.52;;
72299;SDS011;60234;52.414;13.334;2022-07-01T06:58:57;16.43;;;8.80;;
72299;SDS011;60234;52.414;13.334;2022-07-01T07:01:23;15.03;;;8.87;;
72299;SDS011;60234;52.414;13.334;2022-07-01T07:03:49;16.77;;;8.43;;
72299;SDS011;60234;52.414;13.334;2022-07-01T07:06:14;15.20;;;8.88;;
72299;SDS011;60234;52.414;13.334;2022-07-01T07:08:39;15.50;;;8.17;;
72299;SDS011;60234;52.414;13.334;2022-07-01T07:11:05;14.27;;;8.03;;
72299;SDS011;60234;52.414;13.334;2022-07-01T07:13:33;14.07;;;8.02;;
72299;SDS011;60234;52.414;13.334;2022-07-01T07:15:59;13.95;;;7.65;;
72299;SDS011;60234;52.414;13.334;2022-07-01T07:18:25;14.50;;;7.47;;
72299;SDS011;60234;52.414;13.334;2022-07-01T07:20:50;15.97;;;7.50;;
72299;SDS011;60234;52.414;13.334;2022-07-01T07:23:16;12.00;;;7.22;;
72299;SDS011;60234;52.414;13.334;2022-07-01T07:25:41;10.43;;;6.17;;
72299;SDS011;60234;52.414;13.334;2022-07-01T07:28:06;10.87;;;5.50;;
72299;SDS011;60234;52.414;13.334;2022-07-01T07:30:32;10.57;;;5.40;;
72299;SDS011;60234;52.414;13.334;2022-07-01T07:32:57;10.67;;;5.80;;
72299;SDS011;60234;52.414;13.334;2022-07-01T07:35:25;9.63;;;5.55;;
72299;SDS011;60234;52.414;13.334;2022-07-01T07:37:50;11.70;;;6.10;;
72299;SDS011;60234;52.414;13.334;2022-07-01T07:40:16;10.27;;;5.60;;
72299;SDS011;60234;52.414;13.334;2022-07-01T07:42:47;9.53;;;4.87;;
72299;SDS011;60234;52.414;13.334;2022-07-01T07:45:13;10.48;;;5.22;;
72299;SDS011;60234;52.414;13.334;2022-07-01T07:47:44;11.00;;;5.13;;
72299;SDS011;60234;52.414;13.334;2022-07-01T07:50:11;10.88;;;4.70;;
72299;SDS011;60234;52.414;13.334;2022-07-01T07:52:37;9.43;;;4.78;;
72299;SDS011;60234;52.414;13.334;2022-07-01T07:55:04;8.70;;;4.20;;
72299;SDS011;60234;52.414;13.334;2022-07-01T07:57:35;9.10;;;4.72;;
72299;SDS011;60234;52.414;13.334;2022-07-01T08:00:01;9.70;;;4.70;;
72299;SDS011;60234;52.414;13.334;2022-07-01T08:02:26;7.80;;;4.30;;
72299;SDS011;60234;52.414;13.334;2022-07-01T08:04:51;9.33;;;4.90;;
72299;SDS011;60234;52.414;13.334;2022-07-01T08:07:17;11.18;;;5.47;;
72299;SDS011;60234;52.414;13.334;2022-07-01T08:09:42;10.47;;;5.37;;
72299;SDS011;60234;52.414;13.334;2022-07-01T08:12:11;9.73;;;5.28;;
72299;SDS011;60234;52.414;13.334;2022-07-01T08:14:37;9.33;;;5.23;;
72299;SDS011;60234;52.414;13.334;2022-07-01T08:17:03;9.98;;;5.32;;
72299;SDS011;60234;52.414;13.334;2022-07-01T08:19:28;9.52;;;4.95;;
72299;SDS011;60234;52.414;13.334;2022-07-01T08:21:54;11.47;;;5.13;;
72299;SDS011;60234;52.414;13.334;2022-07-01T08:24:19;10.63;;;5.27;;
72299;SDS011;60234;52.414;13.334;2022-07-01T08:26:44;8.97;;;5.13;;
72299;SDS011;60234;52.414;13.334;2022-07-01T08:29:10;9.67;;;5.50;;
72299;SDS011;60234;52.414;13.334;2022-07-01T08:31:35;9.30;;;4.63;;
72299;SDS011;60234;52.414;13.334;2022-07-01T08:34:00;8.03;;;4.60;;
72299;SDS011;60234;52.414;13.334;2022-07-01T08:36:27;9.25;;;4.70;;
72299;SDS011;60234;52.414;13.334;2022-07-01T08:38:52;9.20;;;4.70;;
72299;SDS011;60234;52.414;13.334;2022-07-01T08:41:18;8.30;;;4.10;;
72299;SDS011;60234;52.414;13.334;2022-07-01T08:43:44;8.38;;;4.80;;
72299;SDS011;60234;52.414;13.334;2022-07-01T08:46:10;8.38;;;4.13;;
72299;SDS011;60234;52.414;13.334;2022-07-01T08:48:36;7.67;;;3.93;;
72299;SDS011;60234;52.414;13.334;2022-07-01T08:51:02;7.50;;;4.00;;
72299;SDS011;60234;52.414;13.334;2022-07-01T08:53:29;7.07;;;3.55;;
72299;SDS011;60234;52.414;13.334;2022-07-01T08:55:55;6.82;;;3.50;;
72299;SDS011;60234;52.414;13.334;2022-07-01T08:58:40;7.65;;;4.00;;
72299;SDS011;60234;52.414;13.334;2022-07-01T09:01:12;7.33;;;3.87;;
72299;SDS011;60234;52.414;13.334;2022-07-01T09:03:41;7.80;;;3.72;;
72299;SDS011;60234;52.414;13.334;2022-07-01T09:06:11;7.47;;;3.72;;
72299;SDS011;60234;52.414;13.334;2022-07-01T09:08:38;6.70;;;3.27;;
72299;SDS011;60234;52.414;13.334;2022-07-01T09:11:10;5.50;;;2.20;;
72299;SDS011;60234;52.414;13.334;2022-07-01T09:13:36;6.55;;;2.17;;
72299;SDS011;60234;52.414;13.334;2022-07-01T09:16:02;5.20;;;2.37;;
72299;SDS011;60234;52.414;13.334;2022-07-01T09:18:36;4.43;;;1.85;;
72299;SDS011;60234;52.414;13.334;2022-07-01T09:21:01;5.37;;;2.20;;
72299;SDS011;60234;52.414;13.334;2022-07-01T09:23:32;4.40;;;2.00;;
72299;SDS011;60234;52.414;13.334;2022-07-01T09:25:58;5.43;;;1.70;;
72299;SDS011;60234;52.414;13.334;2022-07-01T09:28:24;4.43;;;1.67;;
72299;SDS011;60234;52.414;13.334;2022-07-01T09:30:53;4.50;;;2.03;;
72299;SDS011;60234;52.414;13.334;2022-07-01T09:33:22;4.45;;;1.52;;
72299;SDS011;60234;52.414;13.334;2022-07-01T09:35:49;3.20;;;1.40;;
72299;SDS011;60234;52.414;13.334;2022-07-01T09:38:19;2.60;;;1.25;;
72299;SDS011;60234;52.414;13.334;2022-07-01T09:40:52;2.97;;;1.27;;
72299;SDS011;60234;52.414;13.334;2022-07-01T09:45:59;2.67;;;1.27;;
72299;SDS011;60234;52.414;13.334;2022-07-01T09:51:08;3.33;;;1.40;;
72299;SDS011;60234;52.414;13.334;2022-07-01T09:53:35;3.30;;;1.30;;
72299;SDS011;60234;52.414;13.334;2022-07-01T09:56:00;2.58;;;1.10;;
72299;SDS011;60234;52.414;13.334;2022-07-01T09:58:26;3.33;;;1.43;;
72299;SDS011;60234;52.414;13.334;2022-07-01T10:00:52;3.05;;;1.27;;
72299;SDS011;60234;52.414;13.334;2022-07-01T10:03:19;3.00;;;1.40;;
72299;SDS011;60234;52.414;13.334;2022-07-01T10:08:46;3.95;;;1.67;;
72299;SDS011;60234;52.414;13.334;2022-07-01T10:14:06;2.85;;;1.10;;
72299;SDS011;60234;52.414;13.334;2022-07-01T10:16:33;3.83;;;1.50;;
72299;SDS011;60234;52.414;13.334;2022-07-01T10:19:05;2.90;;;1.07;;
72299;SDS011;60234;52.414;13.334;2022-07-01T10:21:51;3.35;;;1.30;;
72299;SDS011;60234;52.414;13.334;2022-07-01T10:24:19;2.78;;;1.23;;
72299;SDS011;60234;52.414;13.334;2022-07-01T10:26:48;3.25;;;1.20;;
72299;SDS011;60234;52.414;13.334;2022-07-01T10:29:26;2.23;;;0.97;;
72299;SDS011;60234;52.414;13.334;2022-07-01T10:31:52;3.00;;;0.98;;
72299;SDS011;60234;52.414;13.334;2022-07-01T10:34:17;2.10;;;1.00;;
72299;SDS011;60234;52.414;13.334;2022-07-01T10:36:44;1.75;;;0.88;;
72299;SDS011;60234;52.414;13.334;2022-07-01T10:39:11;1.97;;;0.80;;
72299;SDS011;60234;52.414;13.334;2022-07-01T10:44:12;1.50;;;0.60;;
72299;SDS011;60234;52.414;13.334;2022-07-01T10:46:45;1.30;;;0.55;;
72299;SDS011;60234;52.414;13.334;2022-07-01T10:52:12;1.45;;;0.60;;
72299;SDS011;60234;52.414;13.334;2022-07-01T10:59:48;0.80;;;0.40;;
72299;SDS011;60234;52.414;13.334;2022-07-01T11:02:19;1.17;;;0.50;;
72299;SDS011;60234;52.414;13.334;2022-07-01T11:04:55;2.88;;;0.60;;
72299;SDS011;60234;52.414;13.334;2022-07-01T11:07:27;2.88;;;0.70;;
72299;SDS011;60234;52.414;13.334;2022-07-01T11:09:54;2.28;;;0.75;;
72299;SDS011;60234;52.414;13.334;2022-07-01T11:12:21;2.20;;;0.70;;
72299;SDS011;60234;52.414;13.334;2022-07-01T11:14:51;1.53;;;0.67;;
72299;SDS011;60234;52.414;13.334;2022-07-01T11:17:17;3.03;;;0.77;;
72299;SDS011;60234;52.414;13.334;2022-07-01T11:19:55;2.55;;;0.95;;
72299;SDS011;60234;52.414;13.334;2022-07-01T11:22:27;1.02;;;0.60;;
72299;SDS011;60234;52.414;13.334;2022-07-01T11:25:08;1.77;;;0.70;;
72299;SDS011;60234;52.414;13.334;2022-07-01T11:27:35;2.00;;;0.80;;
72299;SDS011;60234;52.414;13.334;2022-07-01T11:30:10;2.17;;;0.77;;
72299;SDS011;60234;52.414;13.334;2022-07-01T11:32:38;2.55;;;0.85;;
72299;SDS011;60234;52.414;13.334;2022-07-01T11:35:09;3.88;;;1.02;;
72299;SDS011;60234;52.414;13.334;2022-07-01T11:38:05;2.17;;;0.75;;
72299;SDS011;60234;52.414;13.334;2022-07-01T11:40:53;2.10;;;0.80;;
72299;SDS011;60234;52.414;13.334;2022-07-01T11:43:23;3.10;;;1.00;;
72299;SDS011;60234;52.414;13.334;2022-07-01T11:45:51;2.60;;;0.98;;
72299;SDS011;60234;52.414;13.334;2022-07-01T11:48:27;3.15;;;1.23;;
72299;SDS011;60234;52.414;13.334;2022-07-01T11:50:54;2.95;;;1.20;;
72299;SDS011;60234;52.414;13.334;2022-07-01T11:53:19;4.13;;;1.40;;
72299;SDS011;60234;52.414;13.334;2022-07-01T11:55:45;4.47;;;1.40;;
72299;SDS011;60234;52.414;13.334;2022-07-01T11:58:10;3.47;;;1.48;;
72299;SDS011;60234;52.414;13.334;2022-07-01T12:00:36;4.43;;;1.53;;
72299;SDS011;60234;52.414;13.334;2022-07-01T12:03:01;4.67;;;1.63;;
72299;SDS011;60234;52.414;13.334;2022-07-01T12:05:27;5.25;;;1.70;;
72299;SDS011;60234;52.414;13.334;2022-07-01T12:07:53;3.57;;;1.27;;
72299;SDS011;60234;52.414;13.334;2022-07-01T12:10:22;4.82;;;1.67;;
72299;SDS011;60234;52.414;13.334;2022-07-01T12:12:49;4.93;;;1.70;;
72299;SDS011;60234;52.414;13.334;2022-07-01T12:15:14;5.03;;;1.80;;
72299;SDS011;60234;52.414;13.334;2022-07-01T12:17:40;4.53;;;1.83;;
72299;SDS011;60234;52.414;13.334;2022-07-01T12:20:28;4.55;;;1.90;;
72299;SDS011;60234;52.414;13.334;2022-07-01T12:23:14;5.60;;;1.70;;
72299;SDS011;60234;52.414;13.334;2022-07-01T12:25:40;4.15;;;1.60;;
72299;SDS011;60234;52.414;13.334;2022-07-01T12:28:28;3.93;;;1.50;;
72299;SDS011;60234;52.414;13.334;2022-07-01T12:31:05;4.80;;;1.67;;
72299;SDS011;60234;52.414;13.334;2022-07-01T12:33:33;4.25;;;1.80;;
72299;SDS011;60234;52.414;13.334;2022-07-01T12:36:00;5.47;;;2.15;;
72299;SDS011;60234;52.414;13.334;2022-07-01T12:38:27;4.18;;;1.55;;
72299;SDS011;60234;52.414;13.334;2022-07-01T12:40:52;4.93;;;2.00;;
72299;SDS011;60234;52.414;13.334;2022-07-01T12:43:30;4.20;;;1.70;;
72299;SDS011;60234;52.414;13.334;2022-07-01T12:46:02;6.35;;;2.22;;
72299;SDS011;60234;52.414;13.334;2022-07-01T12:48:28;5.27;;;2.20;;
72299;SDS011;60234;52.414;13.334;2022-07-01T12:51:14;5.25;;;1.85;;
72299;SDS011;60234;52.414;13.334;2022-07-01T12:53:41;5.50;;;2.08;;
72299;SDS011;60234;52.414;13.334;2022-07-01T12:56:06;4.23;;;1.93;;
72299;SDS011;60234;52.414;13.334;2022-07-01T12:58:31;5.25;;;2.10;;
72299;SDS011;60234;52.414;13.334;2022-07-01T13:00:57;5.10;;;2.03;;
72299;SDS011;60234;52.414;13.334;2022-07-01T13:03:24;5.28;;;2.17;;
72299;SDS011;60234;52.414;13.334;2022-07-01T13:05:51;5.53;;;2.00;;
72299;SDS011;60234;52.414;13.334;2022-07-01T13:08:17;6.00;;;2.30;;
72299;SDS011;60234;52.414;13.334;2022-07-01T13:10:44;4.47;;;1.92;;
72299;SDS011;60234;52.414;13.334;2022-07-01T13:13:14;4.43;;;1.92;;
72299;SDS011;60234;52.414;13.334;2022-07-01T13:15:41;4.28;;;2.00;;
72299;SDS011;60234;52.414;13.334;2022-07-01T13:18:07;4.07;;;1.93;;
72299;SDS011;60234;52.414;13.334;2022-07-01T13:20:33;4.05;;;1.90;;
72299;SDS011;60234;52.414;13.334;2022-07-01T13:22:59;6.73;;;2.00;;
72299;SDS011;60234;52.414;13.334;2022-07-01T13:25:29;5.07;;;1.98;;
72299;SDS011;60234;52.414;13.334;2022-07-01T13:27:56;4.47;;;1.67;;
72299;SDS011;60234;52.414;13.334;2022-07-01T13:30:22;4.37;;;1.87;;
72299;SDS011;60234;52.414;13.334;2022-07-01T13:32:47;4.20;;;1.63;;
72299;SDS011;60234;52.414;13.334;2022-07-01T13:35:17;4.88;;;2.00;;
72299;SDS011;60234;52.414;13.334;2022-07-01T13:37:42;5.33;;;2.10;;
72299;SDS011;60234;52.414;13.334;2022-07-01T13:40:08;4.93;;;2.15;;
72299;SDS011;60234;52.414;13.334;2022-07-01T13:42:35;5.05;;;2.10;;
72299;SDS011;60234;52.414;13.334;2022-07-01T13:45:02;6.53;;;1.90;;
72299;SDS011;60234;52.414;13.334;2022-07-01T13:47:28;5.10;;;2.22;;
72299;SDS011;60234;52.414;13.334;2022-07-01T13:49:55;5.73;;;2.00;;
72299;SDS011;60234;52.414;13.334;2022-07-01T13:52:23;4.43;;;2.03;;
72299;SDS011;60234;52.414;13.334;2022-07-01T13:58:15;5.17;;;2.10;;
72299;SDS011;60234;52.414;13.334;2022-07-01T14:04:01;5.70;;;2.33;;
72299;SDS011;60234;52.414;13.334;2022-07-01T14:10:27;5.22;;;2.17;;
72299;SDS011;60234;52.414;13.334;2022-07-01T14:15:52;5.82;;;2.45;;
72299;SDS011;60234;52.414;13.334;2022-07-01T14:18:30;5.35;;;2.33;;
72299;SDS011;60234;52.414;13.334;2022-07-01T14:21:27;5.40;;;2.08;;
72299;SDS011;60234;52.414;13.334;2022-07-01T14:24:30;5.65;;;2.30;;
72299;SDS011;60234;52.414;13.334;2022-07-01T14:26:55;5.33;;;2.17;;
72299;SDS011;60234;52.414;13.334;2022-07-01T14:29:21;4.77;;;2.33;;
72299;SDS011;60234;52.414;13.334;2022-07-01T14:31:46;4.87;;;2.13;;
72299;SDS011;60234;52.414;13.334;2022-07-01T14:34:12;6.82;;;2.80;;
72299;SDS011;60234;52.414;13.334;2022-07-01T14:36:37;5.90;;;2.43;;
72299;SDS011;60234;52.414;13.334;2022-07-01T14:39:03;5.60;;;2.40;;
72299;SDS011;60234;52.414;13.334;2022-07-01T14:41:29;6.13;;;2.87;;
72299;SDS011;60234;52.414;13.334;2022-07-01T14:43:55;6.00;;;2.70;;
72299;SDS011;60234;52.414;13.334;2022-07-01T14:46:23;5.03;;;2.33;;
72299;SDS011;60234;52.414;13.334;2022-07-01T14:48:51;5.05;;;2.25;;
72299;SDS011;60234;52.414;13.334;2022-07-01T14:51:16;6.80;;;3.10;;
72299;SDS011;60234;52.414;13.334;2022-07-01T14:53:44;6.00;;;2.53;;
72299;SDS011;60234;52.414;13.334;2022-07-01T14:56:10;6.33;;;2.37;;
72299;SDS011;60234;52.414;13.334;2022-07-01T14:58:35;6.07;;;2.55;;
72299;SDS011;60234;52.414;13.334;2022-07-01T15:01:01;5.77;;;2.60;;
72299;SDS011;60234;52.414;13.334;2022-07-01T15:03:27;6.15;;;2.70;;
72299;SDS011;60234;52.414;13.334;2022-07-01T15:05:52;5.80;;;2.70;;